Time;durP1;ratioP1;P1;durP2;ratioP2;P2;SDS_P1;SDS_P2;PMS_P1;PMS_P2;Temp;Humidity;BMP_temperature;BMP_pressure;BME280_temperature;BME280_humidity;BME280_pressure;Samples;Min_cycle;Max_cycle;Signal;HPM_P1;HPM_P2
2023/07/20 00:00:28;;;;;;;2.73;2.00;;;;;;;19.29;76.91;98574.66;5132444;27;38661;-80
2023/07/20 00:03:11;;;;;;;2.43;2.23;;;;;;;19.24;76.82;98577.00;5115402;27;40896;-80
2023/07/20 00:05:40;;;;;;;2.10;1.90;;;;;;;19.12;76.41;98567.50;5132170;27;42820;-76
2023/07/20 00:08:08;;;;;;;2.27;1.80;;;;;;;19.19;76.51;98580.13;5115235;27;41238;-77
2023/07/20 00:10:35;;;;;;;2.63;2.43;;;;;;;19.19;76.44;98579.28;5133783;27;40021;-78
2023/07/20 00:13:03;;;;;;;3.20;2.33;;;;;;;19.21;76.06;98582.66;5114703;27;40923;-75
2023/07/20 00:15:30;;;;;;;5.07;2.33;;;;;;;19.23;76.30;98586.88;5115454;27;42835;-75
2023/07/20 00:17:58;;;;;;;3.37;2.10;;;;;;;19.14;76.20;98570.88;5114060;27;41248;-76
2023/07/20 00:20:25;;;;;;;2.20;1.93;;;;;;;19.26;76.65;98588.41;5131442;27;39704;-79
2023/07/20 00:22:54;;;;;;;3.00;2.80;;;;;;;19.26;76.60;98591.09;5131190;27;41712;-75
2023/07/20 00:25:22;;;;;;;2.67;2.47;;;;;;;19.27;76.56;98584.72;5114002;27;41956;-78
2023/07/20 00:27:50;;;;;;;2.20;1.97;;;;;;;19.31;76.19;98584.25;5130901;27;43246;-78
2023/07/20 00:30:18;;;;;;;2.23;2.03;;;;;;;19.34;76.05;98586.63;5114052;27;38655;-79
2023/07/20 00:32:46;;;;;;;2.67;2.40;;;;;;;19.28;76.02;98567.63;5131173;27;41763;-76
2023/07/20 00:35:15;;;;;;;2.50;2.30;;;;;;;19.36;76.08;98587.31;5114031;27;43194;-76
2023/07/20 00:37:42;;;;;;;2.67;2.27;;;;;;;19.36;75.65;98591.84;5130644;27;41892;-77
2023/07/20 00:40:12;;;;;;;2.67;2.23;;;;;;;19.36;75.81;98581.94;5131267;27;41024;-79
2023/07/20 00:42:40;;;;;;;4.20;2.20;;;;;;;19.34;75.99;98589.31;5131477;27;41383;-79
2023/07/20 00:45:09;;;;;;;3.07;2.07;;;;;;;19.33;75.84;98586.78;5114479;27;42784;-76
2023/07/20 00:47:37;;;;;;;4.00;2.30;;;;;;;19.30;75.82;98587.06;5131894;27;42266;-77
2023/07/20 00:50:07;;;;;;;3.63;2.20;;;;;;;19.17;75.77;98575.91;5131359;27;40160;-78
2023/07/20 00:52:35;;;;;;;6.30;3.33;;;;;;;19.23;75.99;98600.31;5113372;27;40535;-80
2023/07/20 00:55:03;;;;;;;2.57;2.10;;;;;;;18.92;76.20;98551.56;5130485;27;43525;-77
2023/07/20 00:57:33;;;;;;;2.60;2.20;;;;;;;19.18;76.56;98605.28;5113491;27;42161;-78
2023/07/20 01:00:01;;;;;;;3.43;2.70;;;;;;;19.14;77.31;98597.72;5130678;27;40730;-79
2023/07/20 01:02:29;;;;;;;3.03;2.20;;;;;;;19.14;77.42;98600.41;5131667;27;42683;-78
2023/07/20 01:04:57;;;;;;;3.20;2.10;;;;;;;19.13;77.23;98599.56;5130834;27;43828;-78
2023/07/20 01:07:28;;;;;;;3.33;2.90;;;;;;;19.13;77.18;98596.03;5114390;27;42160;-76
2023/07/20 01:10:04;;;;;;;2.57;2.37;;;;;;;19.14;76.70;98601.25;5134497;27;39919;-75
2023/07/20 01:12:42;;;;;;;3.40;2.00;;;;;;;19.13;76.95;98596.88;5133730;27;42710;-79
2023/07/20 01:15:10;;;;;;;4.20;2.97;;;;;;;19.01;77.44;98588.22;5131239;27;43101;-79
2023/07/20 01:17:38;;;;;;;2.70;2.50;;;;;;;18.98;77.25;98577.81;5116956;27;41135;-78
2023/07/20 01:20:10;;;;;;;3.33;2.53;;;;;;;19.12;77.60;98594.34;5116785;27;38885;-76
2023/07/20 01:22:53;;;;;;;4.23;2.67;;;;;;;19.12;77.77;98589.81;5116575;27;41452;-78
2023/07/20 01:25:43;;;;;;;3.50;2.50;;;;;;;19.14;77.33;98597.72;5132126;27;42854;-79
2023/07/20 01:28:36;;;;;;;3.60;2.23;;;;;;;19.13;77.33;98596.03;5130734;27;42303;-79
2023/07/20 01:31:23;;;;;;;4.57;2.80;;;;;;;19.00;77.88;98581.19;5116764;27;40976;-78
2023/07/20 01:33:53;;;;;;;2.83;2.60;;;;;;;19.09;77.78;98586.59;5116611;27;41019;-77
2023/07/20 01:36:22;;;;;;;2.67;2.33;;;;;;;19.09;77.57;98590.13;5116439;27;42580;-78
2023/07/20 01:38:51;;;;;;;2.40;2.20;;;;;;;19.08;77.31;98587.59;5133516;27;42358;-78
2023/07/20 01:41:20;;;;;;;4.20;2.37;;;;;;;19.07;77.23;98591.28;5135239;27;40120;-78
2023/07/20 01:43:48;;;;;;;2.87;2.60;;;;;;;19.05;77.08;98593.25;5134796;27;41540;-77
2023/07/20 01:46:17;;;;;;;3.30;2.20;;;;;;;19.00;77.05;98591.91;5134566;27;42886;-79
2023/07/20 01:48:46;;;;;;;3.87;2.57;;;;;;;18.98;77.02;98599.28;5134588;27;41445;-79
2023/07/20 01:51:14;;;;;;;5.47;2.60;;;;;;;18.95;77.20;98594.19;5116437;27;38930;-79
2023/07/20 01:53:42;;;;;;;6.33;2.50;;;;;;;19.05;77.26;98609.38;5132843;27;41721;-76
2023/07/20 01:56:12;;;;;;;4.73;2.80;;;;;;;19.01;77.18;98603.50;5144008;27;41430;-76
2023/07/20 01:58:39;;;;;;;3.00;2.20;;;;;;;19.00;76.97;98613.38;5142363;27;42653;-76
2023/07/20 02:01:07;;;;;;;2.77;2.50;;;;;;;18.85;77.03;98593.44;5116472;27;39196;-77
2023/07/20 02:03:35;;;;;;;3.43;2.40;;;;;;;18.90;76.79;98612.63;5135010;27;42882;-79
2023/07/20 02:06:04;;;;;;;2.33;2.13;;;;;;;18.84;76.96;98621.28;5115882;27;42457;-77
2023/07/20 02:08:32;;;;;;;2.73;2.40;;;;;;;18.83;77.06;98611.53;5133676;27;41733;-78
2023/07/20 02:11:00;;;;;;;2.67;2.40;;;;;;;18.77;76.96;98614.00;5133144;27;40925;-76
2023/07/20 02:13:28;;;;;;;4.70;2.60;;;;;;;18.79;77.55;98620.06;5116254;27;40724;-78
2023/07/20 02:15:56;;;;;;;4.13;2.37;;;;;;;18.66;77.44;98599.00;5115912;27;41616;-76
2023/07/20 02:18:23;;;;;;;3.60;2.60;;;;;;;18.70;77.56;98610.22;5133179;27;42211;-78
2023/07/20 02:20:54;;;;;;;2.00;1.80;;;;;;;18.63;77.34;98610.00;5115617;27;39444;-77
2023/07/20 02:23:23;;;;;;;2.03;1.83;;;;;;;18.57;77.29;98615.94;5115796;27;41024;-77
2023/07/20 02:25:51;;;;;;;2.40;2.20;;;;;;;18.53;77.62;98620.78;5115545;27;41737;-76
2023/07/20 02:28:18;;;;;;;3.60;2.30;;;;;;;18.46;77.65;98613.47;5115790;27;42351;-78
2023/07/20 02:30:46;;;;;;;4.17;2.63;;;;;;;18.45;77.31;98619.84;5134091;27;40000;-76
2023/07/20 02:33:14;;;;;;;3.60;2.37;;;;;;;18.36;77.44;98612.72;5116006;27;40834;-76
2023/07/20 02:35:42;;;;;;;2.93;2.13;;;;;;;18.35;77.35;98619.91;5115337;27;42812;-78
2023/07/20 02:38:09;;;;;;;2.83;2.20;;;;;;;18.30;77.08;98620.34;5115562;27;41210;-79
2023/07/20 02:40:38;;;;;;;2.30;2.10;;;;;;;18.09;77.16;98592.97;5133037;27;40179;-76
2023/07/20 02:43:06;;;;;;;2.17;1.97;;;;;;;18.13;77.29;98606.91;5133598;27;40131;-77
2023/07/20 02:45:33;;;;;;;2.67;1.83;;;;;;;18.06;76.76;98609.34;5134099;27;43579;-79
2023/07/20 02:48:02;;;;;;;3.93;2.57;;;;;;;17.94;77.17;98597.13;5116526;27;42444;-79
2023/07/20 02:50:30;;;;;;;2.60;2.40;;;;;;;18.05;77.06;98620.22;5133237;27;39924;-79
2023/07/20 02:52:57;;;;;;;2.07;1.80;;;;;;;18.01;77.31;98625.03;5133738;27;41693;-76
2023/07/20 02:55:25;;;;;;;3.10;2.13;;;;;;;17.97;77.41;98631.69;5133635;27;43959;-76
2023/07/20 02:57:54;;;;;;;4.07;2.40;;;;;;;17.94;77.62;98632.81;5133526;27;42215;-76
2023/07/20 03:00:23;;;;;;;2.60;2.33;;;;;;;17.91;77.71;98626.91;5116332;27;40043;-79
2023/07/20 03:02:52;;;;;;;3.60;2.50;;;;;;;17.75;77.62;98607.94;5116228;27;41160;-78
2023/07/20 03:05:20;;;;;;;2.43;2.17;;;;;;;17.84;78.02;98625.81;5116102;27;42733;-78
2023/07/20 03:07:48;;;;;;;4.47;2.47;;;;;;;17.81;78.34;98634.97;5133039;27;42236;-80
2023/07/20 03:10:16;;;;;;;7.77;3.03;;;;;;;17.77;78.16;98627.41;5114631;27;39732;-75
2023/07/20 03:12:44;;;;;;;5.03;2.90;;;;;;;17.76;78.34;98623.88;5114551;27;40676;-79
2023/07/20 03:15:13;;;;;;;2.90;2.20;;;;;;;17.73;78.10;98631.34;5132189;27;42979;-78
2023/07/20 03:17:41;;;;;;;3.03;2.17;;;;;;;17.71;78.30;98628.81;5132148;27;42327;-77
2023/07/20 03:20:10;;;;;;;4.53;2.60;;;;;;;17.57;78.37;98615.84;5115049;27;39802;-80
2023/07/20 03:22:40;;;;;;;2.80;2.60;;;;;;;17.66;78.64;98635.63;5131759;27;41973;-76
2023/07/20 03:25:08;;;;;;;3.87;2.40;;;;;;;17.64;78.74;98632.22;5132208;27;42792;-79
2023/07/20 03:27:36;;;;;;;3.80;2.60;;;;;;;17.64;78.23;98637.59;5114597;27;43078;-79
2023/07/20 03:30:06;;;;;;;5.03;2.23;;;;;;;17.60;78.49;98637.84;5114476;27;39069;-78
2023/07/20 03:32:36;;;;;;;3.97;2.03;;;;;;;17.57;78.18;98638.13;5114175;27;40797;-76
2023/07/20 03:35:05;;;;;;;4.70;2.60;;;;;;;17.55;77.82;98639.28;5114492;27;42833;-76
2023/07/20 03:37:34;;;;;;;1.90;1.80;;;;;;;17.52;77.74;98644.91;5131758;27;43178;-77
2023/07/20 03:40:02;;;;;;;2.77;1.80;;;;;;;17.51;77.87;98648.59;5132046;27;40708;-78
2023/07/20 03:42:30;;;;;;;4.20;2.50;;;;;;;17.40;77.87;98641.56;5115383;27;41582;-79
2023/07/20 03:44:58;;;;;;;3.60;2.17;;;;;;;17.47;77.94;98658.72;5115808;27;42961;-75
2023/07/20 03:47:26;;;;;;;3.60;2.60;;;;;;;17.43;78.29;98649.28;5132732;27;43151;-77
2023/07/20 03:49:55;;;;;;;3.57;2.87;;;;;;;17.45;78.37;98659.84;5115036;27;39095;-76
2023/07/20 03:52:23;;;;;;;4.60;2.50;;;;;;;17.45;78.42;98660.69;5130174;27;42040;-75
2023/07/20 03:54:51;;;;;;;3.57;2.30;;;;;;;17.41;78.57;98655.78;5132930;27;43749;-77
2023/07/20 03:57:19;;;;;;;3.10;2.30;;;;;;;17.45;78.56;98666.06;5130848;27;42595;-77
2023/07/20 03:59:47;;;;;;;2.83;2.37;;;;;;;17.47;79.06;98669.44;5131501;27;41596;-79
2023/07/20 04:02:15;;;;;;;3.67;2.67;;;;;;;17.48;78.83;98673.81;5132451;27;42681;-77
2023/07/20 04:04:44;;;;;;;2.67;2.33;;;;;;;17.51;78.88;98672.69;5132761;27;43456;-77
2023/07/20 04:07:13;;;;;;;3.20;2.23;;;;;;;17.53;78.89;98668.88;5114001;27;42517;-78
2023/07/20 04:09:43;;;;;;;3.30;2.57;;;;;;;17.45;78.82;98654.50;5131167;27;40065;-75
2023/07/20 04:12:11;;;;;;;2.53;2.33;;;;;;;17.60;79.05;98674.47;5113902;27;41021;-76
2023/07/20 04:14:39;;;;;;;3.23;2.60;;;;;;;17.56;78.69;98673.91;5131345;27;42629;-76
2023/07/20 04:17:07;;;;;;;4.77;2.80;;;;;;;17.68;78.74;98679.16;5131066;27;43259;-75
2023/07/20 04:19:35;;;;;;;4.93;2.50;;;;;;;17.72;78.21;98681.41;5131375;27;40027;-79
2023/07/20 04:22:03;;;;;;;3.10;2.73;;;;;;;17.78;78.18;98685.34;5130957;27;41711;-79
2023/07/20 04:24:33;;;;;;;3.60;2.10;;;;;;;17.83;77.53;98685.72;5113812;27;41699;-78
2023/07/20 04:27:00;;;;;;;4.40;2.40;;;;;;;17.87;77.63;98687.97;5130802;27;43138;-78
2023/07/20 04:29:28;;;;;;;3.60;2.40;;;;;;;17.92;77.00;98695.59;5114032;27;39248;-78
2023/07/20 04:31:56;;;;;;;3.50;2.20;;;;;;;17.91;76.76;98675.16;5130639;27;41023;-76
2023/07/20 04:34:24;;;;;;;3.53;2.03;;;;;;;17.98;76.87;98673.56;5131151;27;42789;-79
2023/07/20 04:36:51;;;;;;;2.87;2.30;;;;;;;18.05;76.44;98680.00;5130855;27;42412;-78
2023/07/20 04:39:19;;;;;;;6.10;3.27;;;;;;;18.10;75.98;98688.47;5113586;27;38865;-75
2023/07/20 04:41:49;;;;;;;3.00;2.60;;;;;;;18.16;75.48;98693.25;5114670;27;40247;-78
2023/07/20 04:44:17;;;;;;;5.20;2.60;;;;;;;18.21;75.29;98696.31;5135601;27;41688;-76
2023/07/20 04:46:45;;;;;;;2.97;2.30;;;;;;;18.28;74.73;98704.63;5135161;27;42830;-76
2023/07/20 04:49:13;;;;;;;2.87;2.67;;;;;;;18.28;74.33;98692.06;5118196;27;40032;-77
2023/07/20 04:51:43;;;;;;;3.13;2.80;;;;;;;18.38;74.60;98708.09;5117719;27;41160;-77
2023/07/20 04:54:11;;;;;;;3.27;2.67;;;;;;;18.46;73.86;98710.03;5118006;27;42836;-77
2023/07/20 04:56:39;;;;;;;3.00;2.70;;;;;;;18.52;74.03;98706.75;5117813;27;42052;-76
2023/07/20 04:59:11;;;;;;;4.17;2.53;;;;;;;18.52;73.37;98698.72;5118714;27;40191;-76
2023/07/20 05:01:40;;;;;;;3.20;2.10;;;;;;;18.62;73.47;98700.38;5135089;27;42328;-78
2023/07/20 05:04:07;;;;;;;5.10;2.70;;;;;;;18.73;72.78;98703.84;5118166;27;41753;-78
2023/07/20 05:06:35;;;;;;;4.50;2.77;;;;;;;18.72;72.75;98694.09;5134098;27;42082;-76
2023/07/20 05:09:03;;;;;;;5.13;2.40;;;;;;;18.88;72.41;98711.22;5134756;27;40859;-77
2023/07/20 05:11:31;;;;;;;4.27;2.43;;;;;;;18.96;72.54;98713.13;5133832;27;41982;-77
2023/07/20 05:13:58;;;;;;;2.97;2.40;;;;;;;19.05;71.65;98714.06;5116882;27;42862;-79
2023/07/20 05:16:28;;;;;;;4.27;2.80;;;;;;;19.11;71.59;98713.44;5116511;27;42428;-78
2023/07/20 05:18:58;;;;;;;4.97;2.53;;;;;;;19.19;71.05;98716.19;5116851;27;38455;-78
2023/07/20 05:21:26;;;;;;;5.27;2.47;;;;;;;19.12;70.71;98688.31;5122456;27;42081;-76
2023/07/20 05:23:54;;;;;;;3.87;2.27;;;;;;;19.25;70.26;98694.13;5124171;27;42813;-77
2023/07/20 05:26:21;;;;;;;3.70;2.53;;;;;;;19.43;70.52;98710.19;5116833;27;42376;-78
2023/07/20 05:28:49;;;;;;;3.40;2.50;;;;;;;19.54;69.82;98715.34;5135551;27;41006;-78
2023/07/20 05:31:16;;;;;;;3.20;2.60;;;;;;;19.62;70.01;98716.28;5133930;27;42629;-79
2023/07/20 05:33:46;;;;;;;4.60;2.60;;;;;;;19.71;69.58;98715.34;5116853;27;43034;-77
2023/07/20 05:36:13;;;;;;;4.10;2.37;;;;;;;19.80;69.60;98707.31;5133426;27;42081;-78
2023/07/20 05:38:41;;;;;;;4.13;2.67;;;;;;;19.87;68.53;98711.09;5134301;27;41912;-78
2023/07/20 05:41:10;;;;;;;3.73;2.47;;;;;;;19.96;68.67;98713.66;5135327;27;41639;-78
2023/07/20 05:43:37;;;;;;;5.63;2.63;;;;;;;20.06;68.16;98702.78;5136470;27;43624;-78
2023/07/20 05:46:05;;;;;;;3.90;2.63;;;;;;;20.05;68.11;98690.34;5117991;27;41098;-78
2023/07/20 05:48:33;;;;;;;3.30;2.20;;;;;;;20.25;68.09;98707.09;5118123;27;38926;-79
2023/07/20 05:51:02;;;;;;;3.67;2.40;;;;;;;20.28;67.88;98694.16;5116932;27;40989;-77
2023/07/20 05:53:30;;;;;;;2.53;2.33;;;;;;;20.47;66.60;98708.41;5134274;27;43759;-79
2023/07/20 05:55:58;;;;;;;5.90;2.80;;;;;;;20.57;66.12;98714.50;5133902;27;43325;-77
2023/07/20 05:58:26;;;;;;;2.60;2.17;;;;;;;20.55;65.63;98703.03;5133514;27;39935;-79
2023/07/20 06:00:54;;;;;;;3.43;2.60;;;;;;;20.77;65.55;98719.44;5132885;27;42313;-79
2023/07/20 06:03:23;;;;;;;5.80;2.50;;;;;;;20.81;65.19;98703.81;5133470;27;42046;-80
2023/07/20 06:05:51;;;;;;;3.63;2.30;;;;;;;20.98;64.96;98716.31;5133214;27;41292;-79
2023/07/20 06:08:21;;;;;;;4.10;2.27;;;;;;;21.04;64.19;98710.25;5135068;27;41052;-79
2023/07/20 06:10:52;;;;;;;3.67;2.20;;;;;;;21.20;63.87;98705.94;5132684;27;42892;-79
2023/07/20 06:13:19;;;;;;;3.03;2.53;;;;;;;21.39;62.91;98735.22;5115957;27;41759;-79
2023/07/20 06:15:47;;;;;;;3.70;2.30;;;;;;;21.53;62.79;98726.47;5132870;27;42321;-79
2023/07/20 06:18:15;;;;;;;4.37;2.93;;;;;;;21.58;62.25;98724.13;5115782;27;38947;-80
2023/07/20 06:20:43;;;;;;;3.83;2.50;;;;;;;21.50;62.30;98689.13;5132810;27;41535;-80
2023/07/20 06:23:11;;;;;;;6.17;2.67;;;;;;;21.72;61.59;98715.38;5133023;27;43865;-80
2023/07/20 06:25:40;;;;;;;3.43;2.30;;;;;;;21.88;61.35;98724.47;5115122;27;41454;-80
2023/07/20 06:28:08;;;;;;;2.87;2.50;;;;;;;21.98;61.93;98714.34;5132916;27;40294;-80
2023/07/20 06:30:36;;;;;;;4.10;3.20;;;;;;;22.10;60.99;98730.00;5134102;27;41633;-79
2023/07/20 06:33:03;;;;;;;7.50;2.77;;;;;;;22.17;60.65;98727.44;5134067;27;42845;-79
2023/07/20 06:35:31;;;;;;;3.10;2.07;;;;;;;22.28;60.03;98720.84;5115298;27;41090;-79
2023/07/20 06:38:00;;;;;;;2.87;2.40;;;;;;;22.40;59.57;98720.28;5132926;27;39817;-78
2023/07/20 06:40:28;;;;;;;5.50;2.50;;;;;;;22.49;58.91;98727.38;5115661;27;40583;-78
2023/07/20 06:42:57;;;;;;;3.90;2.40;;;;;;;22.70;58.31;98736.72;5134361;27;42952;-79
2023/07/20 06:45:25;;;;;;;5.07;2.60;;;;;;;22.78;56.88;98744.81;5134642;27;42471;-78
2023/07/20 06:47:52;;;;;;;3.50;2.60;;;;;;;22.87;56.74;98749.97;5116344;27;40084;-78
2023/07/20 06:50:20;;;;;;;2.40;2.20;;;;;;;23.01;57.13;98751.09;5132845;27;42659;-77
2023/07/20 06:52:48;;;;;;;8.00;2.90;;;;;;;23.13;56.01;98759.63;5133436;27;43714;-78
2023/07/20 06:55:16;;;;;;;5.00;2.43;;;;;;;23.25;56.41;98748.25;5116107;27;42195;-78
2023/07/20 06:57:44;;;;;;;4.47;2.33;;;;;;;23.23;55.35;98728.69;5133139;27;39718;-78
2023/07/20 07:00:14;;;;;;;3.20;2.60;;;;;;;23.58;55.07;98762.41;5116081;27;40611;-77
2023/07/20 07:02:42;;;;;;;3.47;2.10;;;;;;;23.76;54.33;98762.09;5133127;27;41712;-78
2023/07/20 07:05:10;;;;;;;4.27;2.50;;;;;;;23.90;53.88;98758.59;5132654;27;42279;-78
2023/07/20 07:07:37;;;;;;;4.67;2.50;;;;;;;24.04;53.26;98772.34;5133112;27;40109;-77
2023/07/20 07:10:07;;;;;;;4.60;2.40;;;;;;;23.92;52.74;98740.31;5114587;27;41891;-78
2023/07/20 07:12:35;;;;;;;4.83;2.43;;;;;;;24.23;51.67;98774.56;5131358;27;43485;-78
2023/07/20 07:15:02;;;;;;;4.57;2.30;;;;;;;24.33;51.27;98780.53;5131670;27;41320;-78
2023/07/20 07:17:32;;;;;;;5.87;2.87;;;;;;;24.42;51.74;98774.00;5131882;27;41867;-78
2023/07/20 07:20:00;;;;;;;5.03;2.47;;;;;;;24.47;51.33;98776.16;5131949;27;44019;-78
2023/07/20 07:22:29;;;;;;;3.40;2.23;;;;;;;24.60;51.41;98770.94;5131596;27;42090;-78
2023/07/20 07:24:57;;;;;;;5.33;2.40;;;;;;;24.75;50.62;98779.03;5131574;27;41204;-79
2023/07/20 07:27:24;;;;;;;4.20;2.40;;;;;;;24.85;49.97;98779.59;5131660;27;39313;-79
2023/07/20 07:29:52;;;;;;;3.37;2.20;;;;;;;25.08;49.77;98791.19;5114304;27;40663;-77
2023/07/20 07:32:20;;;;;;;3.87;2.40;;;;;;;25.35;49.38;98786.88;5132767;27;42749;-77
2023/07/20 07:34:49;;;;;;;4.77;2.33;;;;;;;25.65;49.08;98782.25;5114273;27;41086;-78
2023/07/20 07:37:19;;;;;;;4.67;2.30;;;;;;;25.98;48.44;98788.81;5114401;27;40149;-78
2023/07/20 07:39:47;;;;;;;6.57;2.83;;;;;;;26.43;47.84;98792.13;5114244;27;40676;-78
2023/07/20 07:42:14;;;;;;;3.33;2.60;;;;;;;26.46;46.94;98797.97;5132312;27;42684;-78
2023/07/20 07:44:42;;;;;;;4.40;2.30;;;;;;;26.45;46.77;98787.34;5132483;27;42183;-78
2023/07/20 07:47:10;;;;;;;5.73;2.50;;;;;;;26.79;46.34;98792.75;5132527;27;40009;-78
2023/07/20 07:49:37;;;;;;;4.77;2.50;;;;;;;27.18;46.00;98802.16;5132653;27;41982;-79
2023/07/20 07:52:07;;;;;;;3.77;2.00;;;;;;;27.27;44.72;98803.66;5131621;27;43638;-78
2023/07/20 07:54:35;;;;;;;3.33;2.20;;;;;;;27.04;45.43;98804.00;5113469;27;41205;-79
2023/07/20 07:57:03;;;;;;;4.40;2.37;;;;;;;26.76;45.22;98804.03;5131199;27;39026;-79
2023/07/20 07:59:36;;;;;;;2.40;2.10;;;;;;;28.27;43.42;98812.88;5132746;27;42544;-79
2023/07/20 08:02:06;;;;;;;2.63;2.10;;;;;;;29.52;39.89;98821.59;5131185;27;42738;-78
2023/07/20 08:04:34;;;;;;;4.20;2.00;;;;;;;28.94;40.03;98835.22;5131487;27;41361;-79
2023/07/20 08:07:05;;;;;;;3.73;2.40;;;;;;;28.61;40.79;98831.72;5113851;27;41043;-79
2023/07/20 08:09:35;;;;;;;2.97;2.20;;;;;;;29.06;39.95;98824.47;5114352;27;40973;-80
2023/07/20 08:12:03;;;;;;;3.07;1.93;;;;;;;30.03;38.35;98841.69;5130592;27;41844;-78
2023/07/20 08:14:31;;;;;;;3.47;2.20;;;;;;;31.49;36.21;98848.25;5131163;27;42269;-79
2023/07/20 08:16:59;;;;;;;2.10;1.90;;;;;;;33.05;33.81;98858.88;5113677;27;39029;-80
2023/07/20 08:19:27;;;;;;;4.57;2.10;;;;;;;34.31;31.93;98859.78;5132676;27;41815;-80
2023/07/20 08:21:54;;;;;;;2.43;1.80;;;;;;;35.39;30.50;98860.31;5113559;27;41712;-81
2023/07/20 08:24:22;;;;;;;2.95;1.85;;;;;;;36.17;28.84;98843.28;5130968;27;42426;-79
2023/07/20 08:26:52;;;;;;;1.92;1.65;;;;;;;37.05;27.45;98883.22;5130617;27;40011;-79
2023/07/20 08:29:19;;;;;;;2.30;2.10;;;;;;;37.23;27.73;98879.19;5131867;27;42089;-79
2023/07/20 08:31:48;;;;;;;5.22;2.00;;;;;;;37.03;27.51;98885.41;5113213;27;42101;-80
2023/07/20 08:34:16;;;;;;;4.00;2.40;;;;;;;36.79;27.36;98844.66;5113543;27;41174;-78
2023/07/20 08:36:43;;;;;;;2.65;1.90;;;;;;;36.88;27.58;98876.19;5131989;27;39877;-80
2023/07/20 08:39:11;;;;;;;2.80;2.00;;;;;;;36.91;27.60;98878.41;5130715;27;41983;-79
2023/07/20 08:41:40;;;;;;;2.78;1.95;;;;;;;36.82;27.86;98871.75;5132461;27;43428;-79
2023/07/20 08:44:10;;;;;;;1.93;1.80;;;;;;;35.74;28.17;98858.00;5132885;27;42594;-79
2023/07/20 08:46:39;;;;;;;4.17;2.07;;;;;;;34.74;28.76;98872.03;5131810;27;38864;-79
2023/07/20 08:49:07;;;;;;;3.73;1.90;;;;;;;34.95;30.10;98843.75;5132934;27;41678;-79
2023/07/20 08:51:36;;;;;;;3.47;2.00;;;;;;;34.54;30.13;98856.84;5113762;27;42883;-79
2023/07/20 08:54:04;;;;;;;3.93;2.10;;;;;;;34.03;30.42;98846.03;5114965;27;42541;-79
2023/07/20 08:56:34;;;;;;;4.03;1.73;;;;;;;33.73;30.70;98844.38;5118191;27;39940;-78
2023/07/20 08:59:03;;;;;;;3.20;1.80;;;;;;;33.40;30.70;98849.75;5134539;27;41309;-79
2023/07/20 09:01:33;;;;;;;2.27;1.60;;;;;;;33.17;30.89;98845.94;5114039;27;41378;-79
2023/07/20 09:04:00;;;;;;;5.10;2.00;;;;;;;33.29;30.78;98843.22;5131522;27;41187;-78
2023/07/20 09:06:28;;;;;;;2.90;1.80;;;;;;;33.56;30.23;98831.66;5131023;27;40240;-77
2023/07/20 09:08:56;;;;;;;2.33;1.80;;;;;;;33.79;30.45;98848.91;5131097;27;41799;-80
2023/07/20 09:11:24;;;;;;;2.60;1.73;;;;;;;33.20;29.78;98844.63;5129429;27;42684;-80
2023/07/20 09:14:03;;;;;;;2.50;1.80;;;;;;;32.99;31.19;98843.38;5131652;27;42043;-80
2023/07/20 09:16:33;;;;;;;2.47;2.00;;;;;;;32.92;31.44;98841.81;5130543;27;40014;-79
2023/07/20 09:19:01;;;;;;;4.73;1.90;;;;;;;32.82;31.90;98831.44;5130171;27;40485;-79
2023/07/20 09:21:31;;;;;;;3.47;1.77;;;;;;;32.45;31.96;98815.22;5130422;27;43747;-75
2023/07/20 09:23:59;;;;;;;2.57;1.83;;;;;;;31.74;31.92;98835.31;5131828;27;42045;-76
2023/07/20 09:26:26;;;;;;;2.20;1.73;;;;;;;31.49;32.48;98822.78;5112757;27;39677;-79
2023/07/20 09:28:55;;;;;;;4.70;1.80;;;;;;;31.57;32.86;98806.84;5132654;27;42529;-84
2023/07/20 09:31:24;;;;;;;2.87;1.93;;;;;;;31.74;31.47;98827.09;5117534;27;42874;-84
2023/07/20 09:33:54;;;;;;;2.30;1.70;;;;;;;31.87;32.68;98822.47;5134596;27;40826;-84
2023/07/20 09:36:22;;;;;;;2.37;1.60;;;;;;;32.20;30.40;98847.47;5117341;27;38832;-85
2023/07/20 09:38:50;;;;;;;2.50;2.00;;;;;;;31.92;30.84;98825.34;5135640;27;41756;-84
2023/07/20 09:41:19;;;;;;;4.60;1.97;;;;;;;31.91;31.17;98808.06;5134856;27;43751;-83
2023/07/20 09:43:47;;;;;;;3.13;1.97;;;;;;;32.34;30.71;98821.53;5118012;27;41316;-84
2023/07/20 09:46:17;;;;;;;2.13;1.80;;;;;;;32.52;31.29;98825.25;5135389;27;40788;-84
2023/07/20 09:48:54;;;;;;;2.97;1.63;;;;;;;32.86;30.01;98838.16;5135664;27;41935;-85
2023/07/20 09:51:23;;;;;;;1.63;1.50;;;;;;;33.55;29.00;98830.84;5117660;27;41709;-83
2023/07/20 09:53:54;;;;;;;2.00;1.40;;;;;;;34.72;27.07;98844.75;5118500;27;42367;-83
2023/07/20 09:56:23;;;;;;;2.83;1.57;;;;;;;36.31;25.75;98854.75;5135146;27;38859;-85
2023/07/20 09:58:51;;;;;;;1.83;1.63;;;;;;;37.82;24.05;98865.09;5135559;27;40847;-85
2023/07/20 10:01:21;;;;;;;1.50;1.40;;;;;;;38.64;24.14;98850.25;5117687;27;44462;-85
2023/07/20 10:03:52;;;;;;;2.20;1.50;;;;;;;38.13;23.30;98848.56;5136255;27;42373;-83
2023/07/20 10:06:24;;;;;;;2.38;1.50;;;;;;;37.12;24.52;98860.84;5134848;27;38763;-83
2023/07/20 10:08:54;;;;;;;3.57;1.60;;;;;;;36.18;24.95;98849.63;5134496;27;42030;-85
2023/07/20 10:11:23;;;;;;;1.33;1.20;;;;;;;35.44;26.13;98833.69;5115380;27;42828;-83
2023/07/20 10:13:54;;;;;;;2.50;1.50;;;;;;;35.25;26.09;98840.56;5133892;27;41273;-83
2023/07/20 10:16:26;;;;;;;1.73;1.37;;;;;;;35.26;26.36;98837.56;5131822;27;40917;-81
2023/07/20 10:19:04;;;;;;;1.73;1.27;;;;;;;35.78;25.07;98834.38;5131092;27;42399;-82
2023/07/20 10:21:37;;;;;;;2.13;1.70;;;;;;;35.34;26.16;98817.03;5133322;27;44258;-81
2023/07/20 10:24:06;;;;;;;1.73;1.30;;;;;;;34.48;26.52;98837.78;5130592;27;42423;-83
2023/07/20 10:26:34;;;;;;;1.80;1.60;;;;;;;34.08;27.12;98826.91;5134847;27;40982;-84
2023/07/20 10:29:03;;;;;;;1.57;1.40;;;;;;;34.56;26.84;98821.69;5133978;27;42259;-84
2023/07/20 10:31:31;;;;;;;2.73;1.70;;;;;;;35.05;26.72;98821.03;5133317;27;43559;-86
2023/07/20 10:33:59;;;;;;;2.17;1.50;;;;;;;35.47;26.35;98796.53;5116378;27;41226;-85
2023/07/20 10:36:28;;;;;;;1.60;1.50;;;;;;;35.89;25.71;98822.34;5133938;27;40192;-87
2023/07/20 10:38:58;;;;;;;2.83;1.67;;;;;;;36.49;24.43;98817.63;5134403;27;41934;-84
2023/07/20 10:41:29;;;;;;;1.30;1.20;;;;;;;37.25;24.18;98830.03;5133503;27;42892;-87
2023/07/20 10:44:02;;;;;;;2.23;1.30;;;;;;;37.30;24.19;98835.59;5131541;27;42410;-84
2023/07/20 10:46:44;;;;;;;2.58;1.48;;;;;;;37.62;23.63;98837.34;5116981;27;39218;-78
2023/07/20 10:49:12;;;;;;;2.97;1.30;;;;;;;37.33;23.04;98828.69;5116422;27;40195;-81
2023/07/20 10:51:41;;;;;;;1.70;1.45;;;;;;;36.98;23.83;98832.06;5132757;27;41620;-81
2023/07/20 10:54:35;;;;;;;2.17;1.70;;;;;;;36.96;24.87;98813.03;5134820;27;43100;-81
2023/07/20 10:57:24;;;;;;;1.77;1.60;;;;;;;36.87;23.90;98819.31;5116625;27;38708;-83
2023/07/20 10:59:52;;;;;;;2.57;1.40;;;;;;;36.53;25.49;98814.09;5133600;27;40944;-80
2023/07/20 11:02:20;;;;;;;2.42;1.35;;;;;;;36.49;24.78;98812.94;5116415;27;41394;-82
2023/07/20 11:04:50;;;;;;;3.60;1.90;;;;;;;36.53;24.34;98816.03;5134349;27;20244;-84
2023/07/20 11:07:19;;;;;;;2.33;1.63;;;;;;;36.63;24.56;98814.16;5133262;27;39768;-80
2023/07/20 11:09:48;;;;;;;2.38;1.48;;;;;;;36.47;24.33;98811.56;5115253;27;41752;-82
2023/07/20 11:12:18;;;;;;;2.10;1.47;;;;;;;36.49;24.61;98801.09;5131624;27;43033;-81
2023/07/20 11:14:56;;;;;;;2.78;1.65;;;;;;;36.60;24.29;98809.16;5115307;27;41539;-82
2023/07/20 11:17:31;;;;;;;1.53;1.40;;;;;;;36.61;24.76;98805.31;5115414;27;39972;-81
2023/07/20 11:20:00;;;;;;;2.83;1.50;;;;;;;36.13;25.02;98803.53;5129603;27;42636;-82
2023/07/20 11:22:28;;;;;;;2.57;1.77;;;;;;;35.88;25.19;98803.31;5132335;27;43482;-80
2023/07/20 11:24:59;;;;;;;1.77;1.40;;;;;;;35.89;24.87;98796.69;5114603;27;41516;-80
2023/07/20 11:27:28;;;;;;;1.70;1.60;;;;;;;35.93;25.10;98795.94;5134350;27;41221;-84
2023/07/20 11:29:55;;;;;;;2.03;1.53;;;;;;;35.87;24.83;98791.44;5115058;27;42035;-81
2023/07/20 11:32:24;;;;;;;1.90;1.70;;;;;;;35.74;24.28;98800.13;5131961;27;43297;-79
2023/07/20 11:34:52;;;;;;;1.43;1.33;;;;;;;35.82;24.55;98788.66;5133303;27;42403;-85
2023/07/20 11:37:20;;;;;;;1.50;1.23;;;;;;;35.80;23.63;98765.19;5133279;27;39955;-83
2023/07/20 11:39:48;;;;;;;2.30;1.50;;;;;;;36.04;22.11;98798.78;5132235;27;43158;-79
2023/07/20 11:42:20;;;;;;;2.72;1.73;;;;;;;36.27;22.78;98790.16;5115374;27;41864;-80